createdAt,value
2023-03-27T00:00:10.740Z,0.40
2023-03-27T00:02:40.147Z,0.80
2023-03-27T00:05:08.449Z,0.40
2023-03-27T00:07:37.098Z,0.70
2023-03-27T00:10:05.291Z,2.70
2023-03-27T00:12:33.522Z,0.70
2023-03-27T00:15:01.752Z,0.30
2023-03-27T00:17:30.213Z,0.50
2023-03-27T00:19:59.533Z,1.10
2023-03-27T00:22:30.028Z,2.80
2023-03-27T00:24:57.948Z,0.30
2023-03-27T00:27:26.819Z,3.30
2023-03-27T00:29:54.951Z,2.60
2023-03-27T00:32:22.861Z,0.00
2023-03-27T00:34:50.702Z,2.40
2023-03-27T00:37:19.945Z,0.50
2023-03-27T00:39:49.960Z,0.50
2023-03-27T00:42:22.728Z,0.50
2023-03-27T00:44:51.894Z,0.40
2023-03-27T00:47:22.850Z,0.40
2023-03-27T00:49:52.533Z,0.40
2023-03-27T00:52:22.290Z,0.30
2023-03-27T00:54:50.343Z,0.40
2023-03-27T00:57:21.951Z,0.30
2023-03-27T00:59:53.723Z,0.30
2023-03-27T01:02:22.896Z,0.20
2023-03-27T01:04:52.073Z,0.10
2023-03-27T01:07:22.527Z,0.20
2023-03-27T01:09:50.586Z,0.10
2023-03-27T01:12:33.468Z,0.10
2023-03-27T01:15:17.060Z,0.00
2023-03-27T01:17:57.809Z,0.00
2023-03-27T01:20:59.622Z,-0.10
2023-03-27T01:24:04.938Z,-0.10
2023-03-27T01:26:57.924Z,-0.10
2023-03-27T01:29:38.721Z,-0.10
2023-03-27T01:32:28.613Z,-0.30
2023-03-27T01:35:25.922Z,-0.30
2023-03-27T01:38:10.314Z,-0.40
2023-03-27T01:40:46.511Z,-0.40
2023-03-27T01:43:19.196Z,-0.50
2023-03-27T01:45:52.103Z,-0.60
2023-03-27T01:48:26.435Z,-0.70
2023-03-27T01:50:58.420Z,-0.90
2023-03-27T01:53:31.060Z,-0.70
2023-03-27T01:56:05.825Z,-0.70
2023-03-27T01:58:39.416Z,-0.70
2023-03-27T02:01:11.305Z,0.20
2023-03-27T02:03:43.742Z,-0.60
2023-03-27T02:06:15.346Z,-0.70
2023-03-27T02:08:48.818Z,-0.70
2023-03-27T02:11:18.592Z,-0.60
2023-03-27T02:13:49.648Z,-0.70
2023-03-27T02:16:21.508Z,-0.60
2023-03-27T02:18:56.640Z,-0.50
2023-03-27T02:21:24.854Z,-0.40
2023-03-27T02:23:53.021Z,-0.40
2023-03-27T02:26:22.307Z,-0.30
2023-03-27T02:29:18.258Z,-0.40
2023-03-27T02:31:59.169Z,-0.30
2023-03-27T02:34:46.743Z,-0.30
2023-03-27T02:37:22.990Z,-0.30
2023-03-27T02:40:06.152Z,-0.30
2023-03-27T02:42:43.049Z,-0.30
2023-03-27T02:45:18.554Z,-0.20
2023-03-27T02:47:52.631Z,-0.30
2023-03-27T02:50:23.025Z,-0.40
2023-03-27T02:52:54.505Z,-0.30
2023-03-27T02:55:25.196Z,-0.30
2023-03-27T02:58:00.008Z,-0.30
2023-03-27T03:00:30.480Z,-0.30
2023-03-27T03:03:07.092Z,-0.30
2023-03-27T03:05:37.059Z,-0.30
2023-03-27T03:08:05.353Z,-0.40
2023-03-27T03:10:34.302Z,-0.30
2023-03-27T03:13:04.017Z,-0.40
2023-03-27T03:15:31.884Z,-0.50
2023-03-27T03:17:59.814Z,-0.50
2023-03-27T03:20:29.804Z,-0.60
2023-03-27T03:22:58.242Z,-0.70
2023-03-27T03:25:26.558Z,-0.60
2023-03-27T03:27:57.971Z,-0.60
2023-03-27T03:30:29.073Z,-0.60
2023-03-27T03:32:57.179Z,-0.50
2023-03-27T03:35:26.015Z,-0.60
2023-03-27T03:37:53.972Z,0.30
2023-03-27T03:40:22.178Z,-0.60
2023-03-27T03:42:52.089Z,-0.70
2023-03-27T03:45:20.740Z,-0.60
2023-03-27T03:47:50.017Z,-0.70
2023-03-27T03:50:18.203Z,-0.60
2023-03-27T03:52:47.027Z,-0.60
2023-03-27T03:55:15.892Z,-0.70
2023-03-27T03:57:47.398Z,-0.70
2023-03-27T04:00:16.812Z,-0.70
2023-03-27T04:02:45.324Z,-0.60
2023-03-27T04:05:14.627Z,-0.80
2023-03-27T04:07:42.559Z,-0.70
2023-03-27T04:10:11.859Z,-0.70
2023-03-27T04:12:39.966Z,-0.70
2023-03-27T04:15:09.074Z,-0.70
2023-03-27T04:17:38.396Z,-0.60
2023-03-27T04:20:07.623Z,-0.60
2023-03-27T04:22:38.052Z,-0.60
2023-03-27T04:25:07.652Z,0.70
2023-03-27T04:27:35.731Z,-0.60
2023-03-27T04:30:03.594Z,-0.50
2023-03-27T04:32:31.490Z,-0.70
2023-03-27T04:34:59.346Z,-0.60
2023-03-27T04:37:27.716Z,-0.60
2023-03-27T04:39:57.871Z,-0.50
2023-03-27T04:42:25.723Z,-0.60
2023-03-27T04:44:53.679Z,-0.50
2023-03-27T04:47:21.558Z,-0.50
2023-03-27T04:49:51.025Z,-0.50
2023-03-27T04:52:19.418Z,-0.50
2023-03-27T04:54:48.204Z,-0.50
2023-03-27T04:57:19.085Z,-0.60
2023-03-27T04:59:47.791Z,-0.60
2023-03-27T05:02:16.456Z,-0.70
2023-03-27T05:04:44.302Z,-0.70
2023-03-27T05:07:12.432Z,-0.70
2023-03-27T05:09:40.363Z,-0.70
2023-03-27T05:12:08.804Z,-0.80
2023-03-27T05:14:38.026Z,-0.70
2023-03-27T05:17:06.809Z,-0.80
2023-03-27T05:19:35.069Z,-0.80
2023-03-27T05:22:03.008Z,-0.80
2023-03-27T05:24:32.816Z,-0.80
2023-03-27T05:27:00.703Z,-0.80
2023-03-27T05:29:29.241Z,-0.70
2023-03-27T05:32:15.770Z,-0.70
2023-03-27T05:34:43.682Z,-0.70
2023-03-27T05:37:11.549Z,-0.70
2023-03-27T05:39:39.379Z,-0.70
2023-03-27T05:42:07.455Z,-0.70
2023-03-27T05:44:35.363Z,-0.60
2023-03-27T05:47:03.277Z,-0.70
2023-03-27T05:49:34.147Z,-0.50
2023-03-27T05:52:02.256Z,-0.60
2023-03-27T05:54:30.518Z,-0.40
2023-03-27T05:56:58.390Z,-0.20
2023-03-27T05:59:26.474Z,-0.20
2023-03-27T06:01:54.290Z,0.00
2023-03-27T06:04:22.997Z,0.20
2023-03-27T06:06:52.283Z,0.30
2023-03-27T06:09:20.149Z,0.50
2023-03-27T06:11:48.004Z,0.60
2023-03-27T06:14:15.886Z,0.90
2023-03-27T06:16:44.583Z,1.00
2023-03-27T06:19:12.487Z,1.20
2023-03-27T06:21:41.002Z,1.50
2023-03-27T06:24:10.455Z,1.60
2023-03-27T06:26:39.196Z,1.70
2023-03-27T06:29:08.037Z,2.00
2023-03-27T06:31:38.864Z,2.10
2023-03-27T06:36:42.197Z,2.00
2023-03-27T06:39:11.967Z,2.50
2023-03-27T06:41:39.835Z,2.30
2023-03-27T06:44:07.712Z,2.60
2023-03-27T06:46:45.269Z,2.80
2023-03-27T06:49:13.811Z,2.90
2023-03-27T06:51:41.788Z,2.90
2023-03-27T06:54:12.287Z,3.00
2023-03-27T06:56:40.232Z,3.00
2023-03-27T06:59:08.937Z,3.10
2023-03-27T07:01:37.183Z,3.30
2023-03-27T07:04:06.625Z,4.90
2023-03-27T07:06:34.522Z,3.50
2023-03-27T07:09:02.501Z,3.40
2023-03-27T07:11:32.303Z,3.30
2023-03-27T07:14:00.370Z,4.60
2023-03-27T07:16:28.407Z,5.50
2023-03-27T07:18:58.292Z,3.30
2023-03-27T07:21:27.433Z,3.80
2023-03-27T07:23:55.453Z,2.90
2023-03-27T07:26:23.537Z,4.00
2023-03-27T07:28:52.801Z,5.10
2023-03-27T07:31:33.100Z,5.40
2023-03-27T07:34:08.875Z,4.10
2023-03-27T07:36:36.995Z,4.40
2023-03-27T07:39:05.020Z,5.90
2023-03-27T07:41:33.036Z,4.90
2023-03-27T07:44:02.370Z,5.30
2023-03-27T07:46:30.369Z,5.70
2023-03-27T07:48:58.482Z,6.80
2023-03-27T07:51:27.399Z,5.50
2023-03-27T07:53:58.494Z,6.60
2023-03-27T07:56:26.606Z,6.10
2023-03-27T07:58:55.156Z,5.80
2023-03-27T08:01:25.780Z,5.90
2023-03-27T08:03:54.114Z,6.30
2023-03-27T08:06:22.328Z,6.40
2023-03-27T08:08:51.558Z,6.40
2023-03-27T08:11:30.242Z,7.10
2023-03-27T08:13:59.357Z,6.90
2023-03-27T08:16:29.651Z,7.10
2023-03-27T08:18:58.616Z,7.20
2023-03-27T08:21:26.527Z,8.10
2023-03-27T08:23:57.363Z,7.30
2023-03-27T08:26:26.408Z,7.30
2023-03-27T08:28:56.131Z,7.40
2023-03-27T08:31:25.499Z,7.50
2023-03-27T08:33:54.922Z,7.70
2023-03-27T08:36:23.008Z,7.40
2023-03-27T08:38:51.476Z,8.00
2023-03-27T08:41:30.485Z,7.80
2023-03-27T08:44:01.673Z,9.30
2023-03-27T08:46:34.023Z,9.50
2023-03-27T08:49:08.260Z,7.30
2023-03-27T08:51:40.942Z,7.20
2023-03-27T08:54:13.123Z,7.60
2023-03-27T08:56:41.238Z,7.60
2023-03-27T08:59:16.171Z,7.90
2023-03-27T09:01:51.360Z,9.00
2023-03-27T09:04:32.136Z,8.10
2023-03-27T09:07:04.514Z,9.80
2023-03-27T09:09:44.892Z,7.80
2023-03-27T09:12:25.818Z,7.90
2023-03-27T09:14:58.069Z,8.80
2023-03-27T09:17:31.139Z,8.40
2023-03-27T09:20:05.992Z,8.30
2023-03-27T09:22:41.168Z,8.20
2023-03-27T09:25:21.062Z,8.20
2023-03-27T09:27:50.768Z,8.30
2023-03-27T09:30:23.488Z,9.50
2023-03-27T09:32:56.466Z,8.80
2023-03-27T09:35:26.237Z,8.70
2023-03-27T09:37:59.688Z,8.40
2023-03-27T09:40:33.482Z,8.40
2023-03-27T09:43:08.077Z,8.50
2023-03-27T09:45:40.632Z,8.70
2023-03-27T09:48:14.868Z,8.80
2023-03-27T09:50:47.314Z,8.70
2023-03-27T09:53:18.132Z,8.50
2023-03-27T09:55:52.964Z,7.90
2023-03-27T09:58:31.357Z,7.20
2023-03-27T10:01:15.491Z,6.60
2023-03-27T10:03:49.783Z,6.50
2023-03-27T10:06:27.120Z,7.20
2023-03-27T10:08:56.920Z,6.60
2023-03-27T10:11:28.527Z,7.00
2023-03-27T10:13:56.521Z,7.30
2023-03-27T10:16:24.876Z,7.50
2023-03-27T10:18:55.613Z,8.30
2023-03-27T10:21:30.604Z,7.80
2023-03-27T10:24:04.997Z,8.20
2023-03-27T10:26:34.376Z,8.10
2023-03-27T10:29:18.563Z,7.80
2023-03-27T10:31:51.869Z,8.50
2023-03-27T10:34:36.512Z,9.90
2023-03-27T10:37:20.722Z,8.80
2023-03-27T10:39:49.004Z,8.80
2023-03-27T10:42:19.029Z,8.90
2023-03-27T10:44:48.951Z,9.10
2023-03-27T10:47:21.650Z,9.10
2023-03-27T10:49:56.542Z,9.10
2023-03-27T10:52:32.895Z,9.40
2023-03-27T10:55:16.689Z,8.50
2023-03-27T10:57:50.990Z,9.50
2023-03-27T11:00:32.415Z,8.90
2023-03-27T11:03:05.260Z,8.90
2023-03-27T11:05:38.596Z,8.80
2023-03-27T11:08:12.205Z,10.40
2023-03-27T11:10:43.199Z,9.00
2023-03-27T11:13:16.121Z,9.10
2023-03-27T11:15:49.186Z,10.10
2023-03-27T11:18:22.636Z,8.20
2023-03-27T11:20:56.509Z,6.80
2023-03-27T11:23:31.014Z,6.60
2023-03-27T11:26:01.115Z,6.90
2023-03-27T11:28:39.573Z,6.20
2023-03-27T11:31:15.112Z,6.10
2023-03-27T11:33:49.520Z,7.70
2023-03-27T11:36:34.226Z,6.70
2023-03-27T11:39:15.255Z,6.90
2023-03-27T11:41:51.310Z,7.20
2023-03-27T11:44:19.358Z,7.50
2023-03-27T11:47:18.766Z,8.10
2023-03-27T11:50:19.225Z,8.00
2023-03-27T11:53:00.912Z,8.30
2023-03-27T11:55:40.250Z,9.80
2023-03-27T11:58:20.092Z,9.40
2023-03-27T12:00:55.237Z,9.90
2023-03-27T12:03:52.716Z,9.90
2023-03-27T12:06:29.288Z,9.90
2023-03-27T12:09:14.397Z,8.60
2023-03-27T12:11:47.682Z,7.70
2023-03-27T12:14:40.584Z,6.90
2023-03-27T12:17:22.460Z,6.30
2023-03-27T12:20:21.072Z,6.20
2023-03-27T12:22:58.539Z,6.20
2023-03-27T12:25:49.522Z,6.40
2023-03-27T12:28:30.802Z,6.60
2023-03-27T12:31:07.088Z,7.20
2023-03-27T12:33:46.439Z,7.20
2023-03-27T12:36:17.902Z,7.40
2023-03-27T12:38:46.819Z,7.60
2023-03-27T12:41:22.866Z,7.60
2023-03-27T12:43:56.275Z,7.60
2023-03-27T12:46:36.367Z,7.50
2023-03-27T12:49:20.479Z,7.30
2023-03-27T12:52:04.883Z,7.50
2023-03-27T12:54:34.145Z,6.60
2023-03-27T12:57:06.621Z,6.10
2023-03-27T12:59:38.826Z,5.80
2023-03-27T13:02:40.405Z,6.00
2023-03-27T13:05:31.422Z,5.60
2023-03-27T13:08:16.891Z,5.60
2023-03-27T13:10:57.620Z,5.70
2023-03-27T13:14:00.237Z,6.60
2023-03-27T13:16:40.533Z,6.50
2023-03-27T13:19:30.599Z,6.40
2023-03-27T13:22:13.796Z,6.60
2023-03-27T13:25:03.234Z,6.60
2023-03-27T13:27:42.313Z,6.80
2023-03-27T13:30:45.338Z,7.00
2023-03-27T13:33:18.245Z,7.20
2023-03-27T13:36:03.367Z,7.30
2023-03-27T13:39:11.799Z,7.60
2023-03-27T13:42:02.281Z,7.90
2023-03-27T13:44:41.383Z,8.30
2023-03-27T13:47:22.591Z,8.70
2023-03-27T13:50:23.186Z,8.70
2023-03-27T13:53:09.417Z,8.70
2023-03-27T13:56:02.304Z,8.90
2023-03-27T13:59:12.952Z,9.10
2023-03-27T14:01:55.924Z,9.10
2023-03-27T14:04:40.236Z,9.40
2023-03-27T14:07:47.198Z,9.30
2023-03-27T14:10:47.228Z,9.10
2023-03-27T14:13:32.710Z,9.10
2023-03-27T14:16:22.734Z,9.00
2023-03-27T14:19:10.366Z,8.40
2023-03-27T14:21:52.234Z,7.90
2023-03-27T14:24:32.854Z,7.70
2023-03-27T14:27:03.236Z,7.40
2023-03-27T14:29:32.482Z,8.20
2023-03-27T14:32:04.619Z,7.30
2023-03-27T14:34:47.163Z,7.20
2023-03-27T14:37:29.686Z,7.10
2023-03-27T14:39:59.233Z,6.90
2023-03-27T14:42:32.884Z,6.70
2023-03-27T14:45:20.360Z,6.70
2023-03-27T14:47:51.261Z,6.70
2023-03-27T14:50:19.725Z,7.00
2023-03-27T14:52:52.522Z,6.80
2023-03-27T14:55:22.134Z,6.80
2023-03-27T14:57:51.139Z,7.00
2023-03-27T15:00:24.441Z,7.00
2023-03-27T15:02:57.109Z,7.00
2023-03-27T15:05:25.090Z,7.10
2023-03-27T15:07:53.038Z,7.10
2023-03-27T15:10:26.131Z,7.10
2023-03-27T15:12:55.714Z,7.00
2023-03-27T15:15:34.446Z,7.00
2023-03-27T15:18:05.393Z,6.90
2023-03-27T15:20:36.957Z,6.80
2023-03-27T15:23:12.679Z,6.70
2023-03-27T15:25:45.900Z,6.80
2023-03-27T15:28:22.029Z,6.80
2023-03-27T15:30:55.003Z,6.80
2023-03-27T15:33:34.357Z,6.80
2023-03-27T15:36:07.015Z,6.80
2023-03-27T15:38:37.407Z,6.70
2023-03-27T15:41:37.550Z,6.70
2023-03-27T15:44:09.341Z,6.60
2023-03-27T15:46:48.570Z,6.60
2023-03-27T15:49:28.741Z,6.50
2023-03-27T15:51:57.274Z,6.50
2023-03-27T15:54:28.579Z,7.00
2023-03-27T15:57:10.004Z,6.30
2023-03-27T15:59:52.210Z,6.40
2023-03-27T16:02:25.630Z,6.20
2023-03-27T16:04:56.109Z,6.10
2023-03-27T16:07:27.876Z,6.10
2023-03-27T16:09:59.582Z,6.50
2023-03-27T16:12:32.367Z,6.30
2023-03-27T16:15:05.790Z,6.20
2023-03-27T16:17:44.699Z,6.20
2023-03-27T16:20:33.480Z,6.30
2023-03-27T16:23:04.312Z,6.10
2023-03-27T16:25:32.207Z,6.10
2023-03-27T16:28:00.506Z,5.90
2023-03-27T16:30:31.926Z,6.10
2023-03-27T16:33:01.874Z,6.10
2023-03-27T16:35:31.799Z,6.10
2023-03-27T16:37:59.792Z,6.60
2023-03-27T16:40:28.252Z,6.90
2023-03-27T16:42:56.183Z,6.20
2023-03-27T16:45:24.096Z,6.50
2023-03-27T16:47:53.253Z,6.50
2023-03-27T16:50:24.842Z,6.40
2023-03-27T16:52:53.290Z,6.50
2023-03-27T16:55:21.244Z,5.00
2023-03-27T16:57:49.170Z,4.90
2023-03-27T17:00:19.885Z,5.50
2023-03-27T17:02:48.480Z,4.70
2023-03-27T17:05:16.439Z,5.40
2023-03-27T17:07:46.797Z,5.50
2023-03-27T17:10:14.968Z,4.50
2023-03-27T17:12:42.919Z,5.20
2023-03-27T17:15:11.355Z,4.00
2023-03-27T17:17:39.327Z,4.50
2023-03-27T17:20:08.695Z,5.70
2023-03-27T17:22:36.816Z,4.50
2023-03-27T17:25:07.141Z,4.80
2023-03-27T17:27:35.114Z,4.50
2023-03-27T17:30:03.155Z,5.30
2023-03-27T17:32:31.131Z,4.20
2023-03-27T17:34:59.003Z,4.30
2023-03-27T17:37:27.307Z,4.20
2023-03-27T17:39:55.360Z,4.20
2023-03-27T17:42:24.952Z,4.80
2023-03-27T17:44:52.863Z,4.00
2023-03-27T17:47:20.820Z,4.30
2023-03-27T17:49:48.775Z,4.00
2023-03-27T17:52:16.861Z,4.00
2023-03-27T17:54:44.723Z,3.90
2023-03-27T17:57:12.684Z,3.90
2023-03-27T17:59:41.967Z,4.60
2023-03-27T18:02:17.926Z,4.00
2023-03-27T18:04:47.817Z,3.90
2023-03-27T18:07:15.743Z,3.90
2023-03-27T18:09:43.627Z,3.80
2023-03-27T18:12:11.545Z,3.90
2023-03-27T18:14:41.474Z,4.20
2023-03-27T18:17:09.688Z,3.80
2023-03-27T18:19:37.600Z,3.90
2023-03-27T18:22:05.931Z,3.80
2023-03-27T18:24:33.809Z,3.50
2023-03-27T18:27:01.636Z,3.70
2023-03-27T18:29:30.382Z,3.30
2023-03-27T18:31:59.655Z,3.50
2023-03-27T18:34:27.603Z,3.40
2023-03-27T18:36:55.490Z,3.40
2023-03-27T18:39:23.567Z,3.20
2023-03-27T18:41:52.263Z,3.10
2023-03-27T18:44:21.470Z,3.90
2023-03-27T18:46:49.635Z,2.50
2023-03-27T18:49:24.892Z,4.10
2023-03-27T18:51:53.464Z,5.00
2023-03-27T18:54:21.662Z,4.80
2023-03-27T18:56:49.709Z,2.60
2023-03-27T18:59:18.041Z,5.30
2023-03-27T19:01:58.966Z,3.40
2023-03-27T19:04:28.560Z,2.40
2023-03-27T19:06:56.975Z,2.70
2023-03-27T19:09:38.678Z,2.50
2023-03-27T19:12:09.787Z,4.80
2023-03-27T19:14:37.736Z,2.70
2023-03-27T19:17:14.697Z,4.80
2023-03-27T19:19:46.278Z,2.10
2023-03-27T19:22:17.436Z,4.50
2023-03-27T19:24:46.446Z,2.30
2023-03-27T19:27:23.296Z,2.40
2023-03-27T19:29:52.792Z,4.30
2023-03-27T19:32:28.774Z,4.90
2023-03-27T19:34:58.313Z,5.60
2023-03-27T19:37:26.465Z,2.90
2023-03-27T19:39:55.170Z,2.60
2023-03-27T19:42:23.100Z,2.00
2023-03-27T19:44:51.130Z,4.10
2023-03-27T19:47:19.140Z,4.90
2023-03-27T19:49:47.239Z,4.40
2023-03-27T19:52:20.072Z,2.20
2023-03-27T19:54:48.271Z,2.40
2023-03-27T19:57:16.464Z,2.90
2023-03-27T19:59:44.360Z,2.20
2023-03-27T20:02:13.085Z,2.30
2023-03-27T20:04:41.232Z,2.10
2023-03-27T20:07:09.939Z,2.10
2023-03-27T20:09:40.733Z,3.40
2023-03-27T20:12:11.178Z,2.20
2023-03-27T20:14:39.108Z,1.60
2023-03-27T20:17:12.222Z,3.90
2023-03-27T20:19:49.618Z,2.70
2023-03-27T20:22:20.653Z,2.10
2023-03-27T20:24:50.352Z,1.90
2023-03-27T20:27:20.039Z,3.10
2023-03-27T20:29:48.102Z,1.90
2023-03-27T20:32:16.080Z,2.10
2023-03-27T20:34:46.229Z,3.90
2023-03-27T20:37:14.135Z,1.90
2023-03-27T20:39:44.671Z,2.10
2023-03-27T20:42:15.924Z,2.00
2023-03-27T20:44:44.536Z,1.90
2023-03-27T20:47:13.096Z,2.00
2023-03-27T20:49:42.792Z,1.80
2023-03-27T20:52:11.979Z,2.00
2023-03-27T20:54:40.579Z,3.20
2023-03-27T20:57:08.802Z,2.10
2023-03-27T20:59:38.179Z,3.00
2023-03-27T21:02:06.411Z,2.10
2023-03-27T21:04:34.630Z,1.70
2023-03-27T21:07:02.549Z,2.10
2023-03-27T21:09:30.421Z,2.00
2023-03-27T21:11:58.306Z,1.90
2023-03-27T21:14:26.174Z,3.20
2023-03-27T21:16:55.445Z,2.00
2023-03-27T21:19:23.491Z,1.80
2023-03-27T21:21:51.431Z,2.90
2023-03-27T21:24:20.371Z,1.90
2023-03-27T21:26:48.340Z,2.00
2023-03-27T21:29:16.239Z,3.30
2023-03-27T21:31:44.472Z,1.90
2023-03-27T21:34:13.755Z,1.90
2023-03-27T21:36:41.809Z,2.00
2023-03-27T21:39:09.842Z,1.80
2023-03-27T21:41:37.765Z,1.90
2023-03-27T21:44:05.832Z,1.80
2023-03-27T21:46:33.901Z,1.90
2023-03-27T21:49:01.835Z,3.50
2023-03-27T21:51:31.266Z,2.50
2023-03-27T21:53:59.131Z,1.30
2023-03-27T21:56:27.116Z,2.80
2023-03-27T21:58:57.300Z,1.80
2023-03-27T22:01:25.830Z,1.50
2023-03-27T22:03:53.891Z,1.80
2023-03-27T22:06:21.723Z,1.80
2023-03-27T22:08:51.089Z,1.80
2023-03-27T22:11:18.999Z,1.80
2023-03-27T22:13:48.500Z,1.90
2023-03-27T22:16:18.277Z,2.40
2023-03-27T22:18:46.544Z,1.60
2023-03-27T22:21:19.577Z,1.60
2023-03-27T22:23:48.897Z,1.90
2023-03-27T22:26:18.283Z,1.50
2023-03-27T22:28:46.154Z,1.60
2023-03-27T22:31:14.416Z,1.70
2023-03-27T22:33:42.348Z,1.60
2023-03-27T22:36:11.948Z,1.70
2023-03-27T22:38:40.627Z,1.70
2023-03-27T22:41:10.151Z,1.40
2023-03-27T22:43:40.188Z,1.70
2023-03-27T22:46:09.668Z,1.60
2023-03-27T22:48:37.841Z,1.60
2023-03-27T22:51:06.427Z,1.60
2023-03-27T22:53:35.278Z,1.60
2023-03-27T22:56:03.959Z,1.60
2023-03-27T22:58:32.383Z,1.60
2023-03-27T23:01:01.765Z,1.60
2023-03-27T23:03:29.831Z,1.50
2023-03-27T23:05:58.169Z,1.60
2023-03-27T23:08:28.580Z,1.50
2023-03-27T23:10:57.973Z,1.50
2023-03-27T23:13:27.098Z,1.50
2023-03-27T23:15:55.268Z,1.50
2023-03-27T23:18:25.410Z,1.40
2023-03-27T23:20:56.576Z,1.50
2023-03-27T23:23:24.802Z,1.60
2023-03-27T23:25:53.115Z,1.60
2023-03-27T23:28:21.291Z,2.80
2023-03-27T23:30:59.774Z,1.50
2023-03-27T23:33:29.886Z,1.60
2023-03-27T23:36:03.467Z,1.60
2023-03-27T23:38:31.539Z,1.70
2023-03-27T23:41:01.050Z,1.70
2023-03-27T23:43:31.134Z,1.80
2023-03-27T23:46:00.365Z,1.80
2023-03-27T23:48:30.461Z,1.80
2023-03-27T23:50:58.750Z,1.80
2023-03-27T23:53:28.202Z,1.70
2023-03-27T23:55:57.841Z,1.70
2023-03-27T23:58:28.417Z,1.70
